Abu Musa, Iran

3:19 AM IRDT on July 31, 2016 (GMT +0430)
Dubai International | | Change Station

Elev 26 ft 25.25 °N, 55.37 °E | Updated 49 minutes ago

Clear
Clear
95 °F
Feels Like 110 °F
N
6
Wind Variable Wind from East

Today
High -- | Low -- °F
--% Chance of Precip.
Yesterday
High -- | Low -- °F
Precip. -- in
Pressure 29.50 in
Visibility -9999.0 miles
Clouds
Heat Index 110 °F
Dew Point 77 °F
Humidity 56%
Rainfall 0.00 in
Snow Depth Not available.
6:16 AM 7:37 PM
Waning Crescent, 10% visible
METAR OMDB 302200Z 09005KT CAVOK 35/25 Q0999 NOSIG
Pressure 29.50 in
Visibility -9999.0 miles
Clouds
Heat Index 110 °F
Dew Point 77 °F
Humidity 56%
Rainfall 0.00 in
Snow Depth Not available.
6:16 AM 7:37 PM
Waning Crescent, 10% visible
METAR OMDB 302200Z 09005KT CAVOK 35/25 Q0999 NOSIG

10-Day Weather Forecast

No radar image for this location.
×

Almanac

Astronomy

Jul. 31, 2016 Rise Set
Actual Time
Civil Twilight
Nautical Twilight
Astronomical Twilight
Moon
Length of Visible Light
Length of Day
Tomorrow will be .
, % of the Moon is Illuminated

Today's Extremes

Country Highs Country Lows

Community

WunderPhotos

Upload Photos

1,928,670 photos uploaded!

WunderBlog® & News

Nearby

Air Quality

  Air Quality AQ Index Pollutant
Not available.

Snow Depth

Station Depth Elevation

Earthquake Activity

City Distance Mag. Time & Date
Minimum magnitude displayed is 2.5.

Coastal Water Temperatures

Place Temperature

Stations

Nearby Weather Stations

Station Location Temp. Windchill Dew Point Humidity Wind Precip. Elev Updated Type